createdAt,value
2022-12-01T00:00:45.109Z,3.44
2022-12-01T00:01:45.296Z,3.44
2022-12-01T00:02:45.200Z,3.42
2022-12-01T00:03:45.072Z,3.44
2022-12-01T00:04:45.054Z,3.40
2022-12-01T00:05:45.075Z,3.36
2022-12-01T00:06:45.038Z,3.34
2022-12-01T00:07:45.137Z,3.37
2022-12-01T00:08:45.015Z,3.36
2022-12-01T00:09:45.043Z,3.34
2022-12-01T00:10:45.010Z,3.36
2022-12-01T00:11:45.047Z,3.37
2022-12-01T00:12:44.987Z,3.37
2022-12-01T00:13:44.972Z,3.42
2022-12-01T00:14:44.951Z,3.44
2022-12-01T00:15:44.951Z,3.45
2022-12-01T00:16:45.135Z,3.47
2022-12-01T00:17:44.933Z,3.47
2022-12-01T00:18:44.936Z,3.45
2022-12-01T00:19:44.907Z,3.45
2022-12-01T00:20:44.894Z,3.44
2022-12-01T00:21:44.887Z,3.42
2022-12-01T00:22:44.920Z,3.41
2022-12-01T00:23:44.894Z,3.41
2022-12-01T00:24:44.890Z,3.41
2022-12-01T00:25:44.848Z,3.40
2022-12-01T00:26:44.827Z,3.41
2022-12-01T00:27:44.826Z,3.41
2022-12-01T00:28:45.198Z,3.44
2022-12-01T00:29:44.797Z,3.42
2022-12-01T00:30:44.780Z,3.45
2022-12-01T00:31:44.840Z,3.44
2022-12-01T00:32:44.773Z,3.44
2022-12-01T00:33:44.768Z,3.47
2022-12-01T00:34:44.795Z,3.45
2022-12-01T00:35:44.751Z,3.47
2022-12-01T00:36:44.726Z,3.47
2022-12-01T00:37:44.716Z,3.45
2022-12-01T00:38:44.726Z,3.45
2022-12-01T00:39:44.764Z,3.45
2022-12-01T00:40:44.687Z,3.45
2022-12-01T00:41:44.704Z,3.44
2022-12-01T00:42:44.668Z,3.44
2022-12-01T00:43:44.676Z,3.41
2022-12-01T00:44:44.664Z,3.40
2022-12-01T00:45:44.756Z,3.40
2022-12-01T00:46:44.768Z,3.42
2022-12-01T00:47:44.632Z,3.42
2022-12-01T00:48:44.603Z,3.41
2022-12-01T00:49:44.660Z,3.41
2022-12-01T00:50:44.582Z,3.41
2022-12-01T00:51:45.160Z,3.36
2022-12-01T00:52:44.581Z,3.37
2022-12-01T00:53:44.601Z,3.36
2022-12-01T00:54:44.571Z,3.36
2022-12-01T00:55:44.555Z,3.40
2022-12-01T00:56:44.580Z,3.37
2022-12-01T00:57:44.517Z,3.40
2022-12-01T00:58:44.515Z,3.40
2022-12-01T00:59:44.497Z,3.37
2022-12-01T01:00:44.499Z,3.36
2022-12-01T01:01:44.544Z,3.36
2022-12-01T01:02:44.534Z,3.36
2022-12-01T01:03:44.462Z,3.37
2022-12-01T01:04:44.438Z,3.36
2022-12-01T01:05:44.462Z,3.36
2022-12-01T01:06:44.443Z,3.36
2022-12-01T01:07:44.511Z,3.34
2022-12-01T01:08:44.445Z,3.32
2022-12-01T01:09:44.413Z,3.34
2022-12-01T01:10:44.398Z,3.34
2022-12-01T01:11:44.394Z,3.36
2022-12-01T01:12:44.361Z,3.36
2022-12-01T01:13:44.387Z,3.34
2022-12-01T01:14:44.339Z,3.34
2022-12-01T01:15:44.340Z,3.31
2022-12-01T01:16:44.399Z,3.31
2022-12-01T01:17:44.332Z,3.31
2022-12-01T01:18:44.307Z,3.31
2022-12-01T01:19:44.337Z,3.28
2022-12-01T01:20:44.280Z,3.29
2022-12-01T01:21:44.296Z,3.26
2022-12-01T01:22:44.269Z,3.26
2022-12-01T01:23:44.260Z,3.25
2022-12-01T01:24:44.244Z,3.29
2022-12-01T01:25:44.268Z,3.31
2022-12-01T01:26:44.209Z,3.29
2022-12-01T01:27:44.205Z,3.29
2022-12-01T01:28:44.195Z,3.31
2022-12-01T01:29:44.220Z,3.31
2022-12-01T01:30:44.210Z,3.31
2022-12-01T01:31:44.214Z,3.31
2022-12-01T01:32:44.158Z,3.31
2022-12-01T01:33:44.173Z,3.29
2022-12-01T01:34:44.164Z,3.29
2022-12-01T01:35:44.139Z,3.31
2022-12-01T01:36:44.164Z,3.31
2022-12-01T01:37:44.129Z,3.32
2022-12-01T01:38:44.099Z,3.32
2022-12-01T01:39:44.091Z,3.32
2022-12-01T01:40:44.087Z,3.32
2022-12-01T01:41:44.105Z,3.31
2022-12-01T01:42:44.084Z,3.31
2022-12-01T01:43:44.051Z,3.32
2022-12-01T01:44:44.045Z,3.31
2022-12-01T01:45:44.104Z,3.31
2022-12-01T01:46:44.031Z,3.29
2022-12-01T01:47:44.017Z,3.32
2022-12-01T01:48:44.051Z,3.29
2022-12-01T01:49:43.997Z,3.26
2022-12-01T01:50:44.048Z,3.23
2022-12-01T01:51:43.967Z,3.23
2022-12-01T01:52:43.955Z,3.25
2022-12-01T01:53:43.955Z,3.22
2022-12-01T01:54:43.964Z,3.22
2022-12-01T01:55:43.945Z,3.22
2022-12-01T01:56:43.927Z,3.21
2022-12-01T01:57:43.921Z,3.19
2022-12-01T01:58:43.898Z,3.18
2022-12-01T01:59:43.922Z,3.13
2022-12-01T02:00:43.889Z,3.13
2022-12-01T02:01:43.888Z,3.11
2022-12-01T02:02:43.960Z,3.13
2022-12-01T02:03:43.858Z,3.14
2022-12-01T02:04:43.867Z,3.14
2022-12-01T02:05:43.814Z,3.14
2022-12-01T02:06:44.250Z,3.13
2022-12-01T02:07:43.842Z,3.16
2022-12-01T02:08:43.786Z,3.13
2022-12-01T02:09:43.798Z,3.13
2022-12-01T02:10:43.824Z,3.11
2022-12-01T02:11:43.787Z,3.10
2022-12-01T02:12:43.750Z,3.14
2022-12-01T02:13:43.761Z,3.13
2022-12-01T02:14:43.728Z,3.16
2022-12-01T02:15:43.741Z,3.16
2022-12-01T02:16:43.799Z,3.13
2022-12-01T02:17:43.701Z,3.13
2022-12-01T02:18:43.687Z,3.13
2022-12-01T02:19:43.678Z,3.11
2022-12-01T02:20:43.667Z,3.11
2022-12-01T02:21:43.668Z,3.11
2022-12-01T02:22:43.690Z,3.11
2022-12-01T02:23:43.651Z,3.08
2022-12-01T02:24:43.651Z,3.11
2022-12-01T02:25:43.648Z,3.08
2022-12-01T02:26:43.627Z,3.08
2022-12-01T02:27:43.604Z,3.05
2022-12-01T02:28:43.612Z,3.08
2022-12-01T02:29:43.589Z,3.11
2022-12-01T02:30:43.667Z,3.11
2022-12-01T02:31:43.573Z,3.11
2022-12-01T02:32:43.557Z,3.05
2022-12-01T02:33:43.823Z,3.05
2022-12-01T02:34:43.538Z,3.08
2022-12-01T02:35:43.513Z,3.07
2022-12-01T02:36:43.503Z,3.08
2022-12-01T02:37:43.513Z,3.07
2022-12-01T02:38:43.483Z,3.07
2022-12-01T02:39:43.506Z,3.11
2022-12-01T02:40:43.495Z,3.10
2022-12-01T02:41:43.467Z,3.08
2022-12-01T02:42:43.466Z,3.07
2022-12-01T02:43:43.450Z,3.07
2022-12-01T02:44:43.459Z,3.05
2022-12-01T02:45:43.476Z,3.05
2022-12-01T02:46:43.671Z,3.04
2022-12-01T02:47:43.410Z,3.03
2022-12-01T02:48:43.406Z,3.04
2022-12-01T02:49:43.404Z,3.07
2022-12-01T02:50:43.388Z,3.08
2022-12-01T02:51:43.604Z,3.11
2022-12-01T02:52:43.355Z,3.13
2022-12-01T02:53:43.323Z,3.11
2022-12-01T02:54:43.339Z,3.16
2022-12-01T02:55:43.356Z,3.14
2022-12-01T02:56:43.304Z,3.10
2022-12-01T02:57:43.309Z,3.10
2022-12-01T02:58:43.280Z,3.10
2022-12-01T02:59:43.288Z,3.07
2022-12-01T03:00:43.267Z,3.05
2022-12-01T03:01:43.425Z,3.05
2022-12-01T03:02:43.449Z,3.07
2022-12-01T03:03:43.243Z,3.08
2022-12-01T03:04:43.281Z,3.05
2022-12-01T03:05:43.213Z,3.04
2022-12-01T03:06:43.197Z,3.05
2022-12-01T03:07:43.261Z,3.04
2022-12-01T03:08:43.404Z,3.04
2022-12-01T03:09:43.173Z,3.05
2022-12-01T03:10:43.169Z,3.03
2022-12-01T03:11:43.134Z,3.03
2022-12-01T03:12:43.179Z,3.05
2022-12-01T03:13:43.141Z,3.05
2022-12-01T03:14:43.132Z,3.08
2022-12-01T03:15:43.302Z,3.10
2022-12-01T03:16:43.098Z,3.10
2022-12-01T03:17:43.101Z,3.10
2022-12-01T03:18:43.101Z,3.10
2022-12-01T03:19:43.071Z,3.08
2022-12-01T03:20:43.056Z,3.05
2022-12-01T03:21:43.052Z,3.01
2022-12-01T03:22:43.053Z,3.03
2022-12-01T03:23:43.038Z,3.03
2022-12-01T03:24:43.051Z,3.04
2022-12-01T03:25:43.013Z,3.07
2022-12-01T03:26:43.007Z,3.05
2022-12-01T03:28:00.547Z,3.07
2022-12-01T03:28:42.986Z,3.07
2022-12-01T03:29:42.996Z,3.07
2022-12-01T03:30:44.047Z,3.08
2022-12-01T03:31:43.021Z,3.07
2022-12-01T03:32:42.951Z,3.05
2022-12-01T03:33:42.934Z,3.07
2022-12-01T03:34:42.945Z,3.05
2022-12-01T03:35:42.909Z,3.04
2022-12-01T03:36:42.899Z,3.03
2022-12-01T03:37:42.903Z,3.03
2022-12-01T03:38:42.886Z,3.04
2022-12-01T03:39:42.920Z,3.05
2022-12-01T03:40:42.860Z,3.05
2022-12-01T03:41:42.858Z,3.07
2022-12-01T03:42:42.849Z,3.05
2022-12-01T03:43:42.833Z,3.05
2022-12-01T03:44:42.864Z,3.04
2022-12-01T03:45:42.815Z,3.05
2022-12-01T03:46:42.866Z,3.05
2022-12-01T03:47:42.833Z,3.04
2022-12-01T03:48:42.770Z,3.04
2022-12-01T03:49:42.784Z,3.07
2022-12-01T03:50:42.780Z,3.04
2022-12-01T03:51:42.996Z,3.04
2022-12-01T03:52:42.740Z,3.00
2022-12-01T03:53:42.718Z,2.98
2022-12-01T03:54:42.761Z,3.00
2022-12-01T03:55:42.701Z,3.00
2022-12-01T03:56:42.737Z,3.01
2022-12-01T03:57:42.675Z,3.01
2022-12-01T03:58:42.688Z,3.00
2022-12-01T03:59:42.686Z,3.01
2022-12-01T04:00:42.696Z,3.03
2022-12-01T04:01:42.878Z,3.03
2022-12-01T04:02:42.673Z,3.03
2022-12-01T04:03:42.627Z,3.03
2022-12-01T04:04:42.618Z,3.07
2022-12-01T04:05:42.656Z,3.05
2022-12-01T04:06:42.596Z,3.05
2022-12-01T04:07:43.410Z,3.07
2022-12-01T04:08:42.582Z,3.07
2022-12-01T04:09:42.558Z,3.07
2022-12-01T04:10:42.564Z,3.05
2022-12-01T04:11:42.562Z,3.05
2022-12-01T04:12:42.545Z,3.04
2022-12-01T04:13:42.518Z,3.03
2022-12-01T04:14:42.507Z,3.01
2022-12-01T04:15:42.566Z,3.01
2022-12-01T04:16:42.501Z,3.01
2022-12-01T04:17:42.479Z,3.03
2022-12-01T04:18:42.493Z,3.01
2022-12-01T04:19:42.483Z,3.01
2022-12-01T04:20:42.454Z,3.00
2022-12-01T04:21:42.492Z,3.03
2022-12-01T04:22:42.442Z,3.04
2022-12-01T04:23:42.428Z,3.04
2022-12-01T04:24:42.436Z,3.07
2022-12-01T04:25:42.390Z,3.08
2022-12-01T04:26:42.397Z,3.08
2022-12-01T04:27:42.414Z,3.10
2022-12-01T04:28:42.381Z,3.10
2022-12-01T04:29:42.364Z,3.10
2022-12-01T04:30:42.360Z,3.08
2022-12-01T04:31:42.380Z,3.04
2022-12-01T04:32:42.515Z,3.04
2022-12-01T04:33:42.339Z,3.04
2022-12-01T04:34:42.308Z,3.04
2022-12-01T04:35:42.305Z,3.03
2022-12-01T04:36:42.309Z,3.07
2022-12-01T04:37:42.399Z,3.05
2022-12-01T04:38:42.291Z,3.10
2022-12-01T04:39:42.246Z,3.07
2022-12-01T04:40:42.471Z,3.10
2022-12-01T04:41:42.258Z,3.11
2022-12-01T04:42:42.241Z,3.10
2022-12-01T04:43:42.234Z,3.07
2022-12-01T04:44:42.207Z,3.04
2022-12-01T04:45:42.213Z,3.03
2022-12-01T04:46:42.267Z,3.04
2022-12-01T04:47:42.188Z,3.07
2022-12-01T04:48:42.189Z,3.03
2022-12-01T04:49:42.170Z,3.00
2022-12-01T04:50:42.165Z,2.97
2022-12-01T04:51:42.136Z,2.95
2022-12-01T04:52:42.149Z,2.95
2022-12-01T04:53:42.113Z,2.92
2022-12-01T04:54:42.189Z,2.92
2022-12-01T04:55:42.125Z,2.92
2022-12-01T04:56:42.100Z,2.90
2022-12-01T04:57:42.082Z,2.90
2022-12-01T04:58:42.079Z,2.87
2022-12-01T04:59:42.271Z,2.87
2022-12-01T05:00:42.130Z,2.85
2022-12-01T05:01:42.104Z,2.83
2022-12-01T05:02:42.030Z,2.87
2022-12-01T05:03:42.010Z,2.86
2022-12-01T05:04:42.005Z,2.89
2022-12-01T05:05:42.000Z,2.87
2022-12-01T05:06:42.033Z,2.89
2022-12-01T05:07:42.064Z,2.86
2022-12-01T05:08:42.101Z,2.85
2022-12-01T05:09:41.953Z,2.82
2022-12-01T05:10:41.967Z,2.83
2022-12-01T05:11:41.986Z,2.80
2022-12-01T05:12:41.969Z,2.80
2022-12-01T05:13:41.915Z,2.80
2022-12-01T05:14:41.980Z,2.75
2022-12-01T05:15:41.905Z,2.74
2022-12-01T05:16:42.024Z,2.71
2022-12-01T05:17:41.899Z,2.71
2022-12-01T05:18:41.955Z,2.72
2022-12-01T05:19:41.896Z,2.71
2022-12-01T05:20:41.859Z,2.75
2022-12-01T05:21:41.836Z,2.72
2022-12-01T05:23:04.248Z,2.71
2022-12-01T05:23:42.495Z,2.72
2022-12-01T05:24:41.834Z,2.68
2022-12-01T05:25:41.822Z,2.69
2022-12-01T05:26:42.044Z,2.69
2022-12-01T05:27:41.782Z,2.71
2022-12-01T05:28:41.939Z,2.71
2022-12-01T05:29:41.758Z,2.74
2022-12-01T05:30:41.740Z,2.77
2022-12-01T05:31:41.876Z,2.80
2022-12-01T05:32:41.721Z,2.83
2022-12-01T05:33:41.712Z,2.86
2022-12-01T05:34:41.741Z,2.87
2022-12-01T05:35:41.690Z,2.89
2022-12-01T05:36:41.698Z,2.90
2022-12-01T05:37:41.698Z,2.92
2022-12-01T05:38:41.655Z,2.95
2022-12-01T05:39:41.893Z,2.98
2022-12-01T05:40:41.643Z,3.00
2022-12-01T05:41:41.651Z,3.00
2022-12-01T05:42:41.636Z,3.01
2022-12-01T05:43:41.607Z,3.03
2022-12-01T05:44:41.629Z,3.00
2022-12-01T05:45:41.741Z,3.00
2022-12-01T05:46:41.608Z,3.00
2022-12-01T05:47:41.580Z,2.98
2022-12-01T05:48:41.573Z,2.98
2022-12-01T05:49:41.591Z,3.00
2022-12-01T05:50:41.614Z,3.00
2022-12-01T05:51:41.544Z,3.04
2022-12-01T05:52:41.512Z,3.05
2022-12-01T05:53:41.495Z,3.04
2022-12-01T05:54:41.509Z,3.04
2022-12-01T05:55:41.502Z,3.04
2022-12-01T05:56:41.499Z,3.03
2022-12-01T05:57:41.531Z,3.01
2022-12-01T05:58:41.459Z,3.01
2022-12-01T05:59:41.442Z,3.03
2022-12-01T06:00:45.615Z,3.03
2022-12-01T06:01:41.781Z,3.05
2022-12-01T06:02:41.667Z,3.05
2022-12-01T06:03:41.462Z,3.04
2022-12-01T06:04:41.412Z,3.05
2022-12-01T06:05:41.411Z,3.05
2022-12-01T06:06:41.558Z,3.07
2022-12-01T06:07:41.474Z,3.05
2022-12-01T06:08:41.350Z,3.07
2022-12-01T06:09:41.395Z,3.04
2022-12-01T06:10:41.563Z,3.05
2022-12-01T06:11:41.345Z,3.03
2022-12-01T06:12:41.380Z,3.05
2022-12-01T06:13:41.316Z,3.07
2022-12-01T06:14:41.481Z,3.07
2022-12-01T06:15:41.295Z,3.07
2022-12-01T06:16:41.366Z,3.08
2022-12-01T06:17:41.271Z,3.07
2022-12-01T06:18:41.281Z,3.07
2022-12-01T06:19:41.236Z,3.08
2022-12-01T06:20:41.228Z,3.08
2022-12-01T06:21:41.225Z,3.08
2022-12-01T06:22:41.227Z,3.10
2022-12-01T06:23:42.349Z,3.08
2022-12-01T06:24:41.189Z,3.10
2022-12-01T06:25:41.193Z,3.10
2022-12-01T06:26:41.616Z,3.11
2022-12-01T06:27:41.194Z,3.14
2022-12-01T06:28:41.167Z,3.14
2022-12-01T06:29:42.388Z,3.16
2022-12-01T06:30:41.152Z,3.16
2022-12-01T06:31:41.522Z,3.19
2022-12-01T06:32:41.124Z,3.19
2022-12-01T06:33:41.107Z,3.19
2022-12-01T06:34:41.111Z,3.16
2022-12-01T06:35:41.084Z,3.14
2022-12-01T06:36:41.077Z,3.13
2022-12-01T06:37:41.068Z,3.10
2022-12-01T06:38:41.059Z,3.08
2022-12-01T06:39:41.090Z,3.07
2022-12-01T06:40:41.059Z,3.04
2022-12-01T06:41:41.024Z,3.04
2022-12-01T06:42:41.011Z,3.03
2022-12-01T06:43:41.009Z,3.01
2022-12-01T06:44:41.201Z,2.97
2022-12-01T06:45:41.003Z,2.93
2022-12-01T06:46:41.259Z,2.92
2022-12-01T06:47:40.952Z,2.87
2022-12-01T06:48:40.944Z,2.89
2022-12-01T06:49:40.946Z,2.89
2022-12-01T06:50:40.976Z,2.86
2022-12-01T06:51:40.927Z,2.86
2022-12-01T06:52:40.941Z,2.89
2022-12-01T06:53:40.907Z,2.87
2022-12-01T06:54:40.899Z,2.89
2022-12-01T06:55:40.913Z,2.87
2022-12-01T06:56:40.882Z,2.89
2022-12-01T06:57:40.853Z,2.90
2022-12-01T06:58:40.849Z,2.90
2022-12-01T06:59:41.941Z,2.90
2022-12-01T07:00:40.890Z,2.92
2022-12-01T07:01:40.943Z,2.93
2022-12-01T07:02:40.886Z,2.95
2022-12-01T07:03:40.793Z,2.97
2022-12-01T07:04:40.777Z,2.95
2022-12-01T07:05:40.836Z,2.92
2022-12-01T07:06:40.831Z,2.86
2022-12-01T07:07:40.903Z,2.80
2022-12-01T07:08:40.766Z,2.80
2022-12-01T07:09:40.749Z,2.83
2022-12-01T07:10:40.727Z,2.79
2022-12-01T07:11:40.708Z,2.77
2022-12-01T07:12:40.734Z,2.79
2022-12-01T07:13:40.707Z,2.80
2022-12-01T07:14:41.041Z,2.80
2022-12-01T07:15:40.698Z,2.77
2022-12-01T07:16:40.748Z,2.79
2022-12-01T07:17:40.968Z,2.75
2022-12-01T07:18:40.700Z,2.74
2022-12-01T07:19:40.687Z,2.74
2022-12-01T07:20:40.807Z,2.74
2022-12-01T07:21:40.625Z,2.72
2022-12-01T07:22:40.601Z,2.71
2022-12-01T07:23:40.837Z,2.71
2022-12-01T07:24:40.608Z,2.71
2022-12-01T07:25:40.596Z,2.71
2022-12-01T07:26:40.557Z,2.71
2022-12-01T07:27:40.602Z,2.72
2022-12-01T07:28:41.003Z,2.75
2022-12-01T07:29:40.565Z,2.75
2022-12-01T07:30:40.535Z,2.75
2022-12-01T07:31:40.528Z,2.75
2022-12-01T07:32:40.490Z,2.74
2022-12-01T07:33:40.514Z,2.72
2022-12-01T07:34:40.493Z,2.72
2022-12-01T07:35:40.474Z,2.75
2022-12-01T07:36:40.462Z,2.80
2022-12-01T07:37:40.466Z,2.80
2022-12-01T07:38:40.453Z,2.77
2022-12-01T07:39:40.459Z,2.80
2022-12-01T07:40:40.423Z,2.83
2022-12-01T07:41:40.428Z,2.82
2022-12-01T07:42:40.407Z,2.83
2022-12-01T07:43:40.407Z,2.85
2022-12-01T07:44:40.390Z,2.85
2022-12-01T07:45:40.519Z,2.89
2022-12-01T07:46:40.424Z,2.87
2022-12-01T07:47:40.355Z,2.87
2022-12-01T07:48:40.340Z,2.89
2022-12-01T07:49:40.348Z,2.89
2022-12-01T07:50:40.308Z,2.89
2022-12-01T07:51:40.670Z,2.92
2022-12-01T07:52:40.290Z,2.95
2022-12-01T07:53:40.285Z,2.95
2022-12-01T07:54:40.279Z,2.93
2022-12-01T07:55:40.265Z,2.97
2022-12-01T07:56:40.581Z,3.00
2022-12-01T07:57:40.251Z,3.03
2022-12-01T07:58:40.247Z,3.04
2022-12-01T07:59:40.234Z,3.05
2022-12-01T08:00:40.238Z,3.08
2022-12-01T08:01:44.293Z,3.10
2022-12-01T08:02:40.238Z,3.08
2022-12-01T08:03:40.193Z,3.10
2022-12-01T08:04:40.176Z,3.13
2022-12-01T08:05:40.179Z,3.14
2022-12-01T08:06:40.722Z,3.16
2022-12-01T08:07:40.240Z,3.19
2022-12-01T08:08:40.121Z,3.22
2022-12-01T08:09:40.140Z,3.21
2022-12-01T08:10:40.130Z,3.18
2022-12-01T08:11:40.117Z,3.18
2022-12-01T08:12:40.897Z,3.14
2022-12-01T08:13:40.105Z,3.16
2022-12-01T08:14:40.083Z,3.16
2022-12-01T08:15:40.202Z,3.14
2022-12-01T08:16:40.061Z,3.13
2022-12-01T08:17:40.085Z,3.13
2022-12-01T08:18:40.050Z,3.14
2022-12-01T08:19:40.030Z,3.13
2022-12-01T08:20:40.004Z,3.11
2022-12-01T08:21:40.006Z,3.10
2022-12-01T08:22:39.985Z,3.13
2022-12-01T08:23:40.207Z,3.13
2022-12-01T08:24:39.967Z,3.11
2022-12-01T08:25:39.974Z,3.10
2022-12-01T08:26:39.987Z,3.11
2022-12-01T08:27:39.952Z,3.13
2022-12-01T08:28:39.935Z,3.16
2022-12-01T08:29:39.957Z,3.18
2022-12-01T08:30:39.929Z,3.21
2022-12-01T08:31:39.926Z,3.23
2022-12-01T08:32:39.897Z,3.25
2022-12-01T08:33:39.890Z,3.23
2022-12-01T08:34:39.904Z,3.25
2022-12-01T08:35:39.875Z,3.25
2022-12-01T08:36:39.852Z,3.22
2022-12-01T08:37:39.951Z,3.22
2022-12-01T08:38:39.828Z,3.23
2022-12-01T08:39:39.828Z,3.23
2022-12-01T08:40:39.847Z,3.23
2022-12-01T08:41:40.063Z,3.26
2022-12-01T08:42:39.809Z,3.26
2022-12-01T08:44:40.102Z,3.25
2022-12-01T08:45:39.768Z,3.28
2022-12-01T08:46:39.806Z,3.28
2022-12-01T08:47:39.743Z,3.29
2022-12-01T08:48:39.730Z,3.29
2022-12-01T08:49:39.790Z,3.32
2022-12-01T08:50:39.736Z,3.36
2022-12-01T08:51:39.735Z,3.36
2022-12-01T08:52:39.703Z,3.32
2022-12-01T08:53:45.165Z,3.31
2022-12-01T08:54:39.709Z,3.34
2022-12-01T08:55:39.675Z,3.36
2022-12-01T08:56:39.690Z,3.40
2022-12-01T08:57:39.856Z,3.40
2022-12-01T08:58:39.632Z,3.42
2022-12-01T08:59:39.620Z,3.41
2022-12-01T09:00:39.622Z,3.40
2022-12-01T09:01:39.633Z,3.41
2022-12-01T09:02:39.700Z,3.45
2022-12-01T09:03:39.578Z,3.47
2022-12-01T09:04:39.590Z,3.50
2022-12-01T09:05:39.579Z,3.50
2022-12-01T09:06:39.585Z,3.50
2022-12-01T09:07:39.742Z,3.48
2022-12-01T09:08:39.541Z,3.53
2022-12-01T09:09:39.519Z,3.51
2022-12-01T09:10:39.563Z,3.55
2022-12-01T09:11:39.512Z,3.58
2022-12-01T09:12:39.548Z,3.59
2022-12-01T09:13:39.656Z,3.59
2022-12-01T09:14:39.467Z,3.62
2022-12-01T09:15:39.448Z,3.63
2022-12-01T09:16:39.540Z,3.65
2022-12-01T09:17:39.569Z,3.65
2022-12-01T09:18:39.441Z,3.62
2022-12-01T09:19:39.435Z,3.62
2022-12-01T09:20:39.420Z,3.59
2022-12-01T09:21:39.391Z,3.58
2022-12-01T09:22:39.417Z,3.59
2022-12-01T09:23:39.998Z,3.62
2022-12-01T09:24:39.352Z,3.65
2022-12-01T09:25:39.366Z,3.66
2022-12-01T09:26:39.345Z,3.69
2022-12-01T09:27:39.335Z,3.73
2022-12-01T09:28:39.337Z,3.77
2022-12-01T09:29:39.322Z,3.80
2022-12-01T09:30:39.326Z,3.83
2022-12-01T09:31:39.360Z,3.86
2022-12-01T09:32:39.291Z,3.88
2022-12-01T09:33:39.348Z,3.88
2022-12-01T09:34:39.272Z,3.91
2022-12-01T09:35:39.274Z,3.92
2022-12-01T09:36:39.271Z,3.96
2022-12-01T09:37:39.224Z,3.98
2022-12-01T09:38:39.217Z,3.99
2022-12-01T09:39:39.234Z,4.01
2022-12-01T09:40:39.209Z,4.04
2022-12-01T09:41:39.190Z,4.05
2022-12-01T09:42:39.180Z,4.05
2022-12-01T09:43:39.185Z,4.12
2022-12-01T09:44:39.210Z,4.12
2022-12-01T09:45:39.183Z,4.14
2022-12-01T09:46:39.306Z,4.17
2022-12-01T09:47:39.148Z,4.17
2022-12-01T09:48:39.117Z,4.22
2022-12-01T09:49:39.266Z,4.22
2022-12-01T09:50:39.095Z,4.23
2022-12-01T09:51:39.104Z,4.28
2022-12-01T09:52:39.088Z,4.30
2022-12-01T09:53:39.085Z,4.28
2022-12-01T09:54:39.074Z,4.20
2022-12-01T09:55:39.082Z,4.17
2022-12-01T09:56:39.050Z,4.22
2022-12-01T09:57:39.039Z,4.23
2022-12-01T09:58:39.026Z,4.23
2022-12-01T09:59:39.016Z,4.20
2022-12-01T10:00:39.080Z,4.20
2022-12-01T10:01:39.073Z,4.20
2022-12-01T10:02:39.057Z,4.22
2022-12-01T10:03:38.974Z,4.20
2022-12-01T10:04:39.002Z,4.17
2022-12-01T10:05:56.553Z,4.17
2022-12-01T10:06:39.055Z,4.20
2022-12-01T10:07:39.012Z,4.23
2022-12-01T10:08:38.913Z,4.28
2022-12-01T10:09:38.931Z,4.26
2022-12-01T10:10:38.928Z,4.30
2022-12-01T10:11:38.901Z,4.31
2022-12-01T10:12:38.891Z,4.32
2022-12-01T10:13:38.871Z,4.30
2022-12-01T10:14:38.870Z,4.32
2022-12-01T10:15:38.874Z,4.34
2022-12-01T10:16:38.938Z,4.34
2022-12-01T10:17:38.826Z,4.37
2022-12-01T10:18:38.803Z,4.37
2022-12-01T10:19:38.811Z,4.38
2022-12-01T10:20:38.839Z,4.45
2022-12-01T10:21:38.797Z,4.48
2022-12-01T10:22:38.774Z,4.44
2022-12-01T10:23:38.782Z,4.48
2022-12-01T10:24:38.758Z,4.50
2022-12-01T10:25:38.755Z,4.49
2022-12-01T10:26:38.796Z,4.50
2022-12-01T10:27:38.715Z,4.53
2022-12-01T10:28:38.702Z,4.55
2022-12-01T10:29:38.693Z,4.56
2022-12-01T10:30:38.679Z,4.52
2022-12-01T10:31:38.764Z,4.52
2022-12-01T10:32:38.668Z,4.52
2022-12-01T10:33:38.666Z,4.56
2022-12-01T10:34:38.661Z,4.56
2022-12-01T10:35:38.646Z,4.55
2022-12-01T10:36:38.638Z,4.56
2022-12-01T10:37:38.729Z,4.60
2022-12-01T10:38:38.620Z,4.62
2022-12-01T10:39:38.603Z,4.67
2022-12-01T10:40:38.601Z,4.70
2022-12-01T10:41:38.574Z,4.74
2022-12-01T10:42:38.583Z,4.82
2022-12-01T10:43:38.555Z,4.80
2022-12-01T10:44:38.535Z,4.82
2022-12-01T10:45:38.595Z,4.86
2022-12-01T10:46:38.536Z,4.87
2022-12-01T10:47:38.541Z,4.86
2022-12-01T10:48:38.501Z,4.86
2022-12-01T10:49:38.517Z,4.89
2022-12-01T10:50:38.490Z,4.93
2022-12-01T10:51:38.491Z,4.96
2022-12-01T10:52:38.501Z,4.97
2022-12-01T10:53:38.461Z,5.00
2022-12-01T10:54:38.433Z,5.02
2022-12-01T10:55:41.949Z,5.04
2022-12-01T10:56:38.416Z,5.05
2022-12-01T10:57:38.451Z,5.08
2022-12-01T10:58:38.413Z,5.11
2022-12-01T10:59:38.415Z,5.14
2022-12-01T11:01:38.554Z,5.14
2022-12-01T11:02:38.508Z,5.14
2022-12-01T11:03:38.555Z,5.12
2022-12-01T11:04:38.365Z,5.11
2022-12-01T11:05:38.327Z,5.12
2022-12-01T11:06:38.320Z,5.15
2022-12-01T11:07:38.376Z,5.17
2022-12-01T11:08:38.332Z,5.20
2022-12-01T11:09:38.295Z,5.21
2022-12-01T11:10:38.285Z,5.20
2022-12-01T11:11:38.272Z,5.23
2022-12-01T11:12:38.318Z,5.26
2022-12-01T11:13:38.268Z,5.28
2022-12-01T11:14:38.276Z,5.32
2022-12-01T11:15:38.243Z,5.30
2022-12-01T11:16:38.317Z,5.29
2022-12-01T11:17:38.257Z,5.30
2022-12-01T11:18:38.260Z,5.29
2022-12-01T11:19:38.445Z,5.29
2022-12-01T11:20:38.271Z,5.26
2022-12-01T11:21:38.167Z,5.28
2022-12-01T11:22:38.152Z,5.26
2022-12-01T11:23:38.146Z,5.29
2022-12-01T11:24:38.128Z,5.32
2022-12-01T11:25:38.126Z,5.33
2022-12-01T11:26:38.145Z,5.36
2022-12-01T11:27:38.100Z,5.36
2022-12-01T11:28:38.103Z,5.38
2022-12-01T11:29:38.085Z,5.39
2022-12-01T11:30:38.077Z,5.41
2022-12-01T11:31:38.176Z,5.38
2022-12-01T11:32:38.056Z,5.43
2022-12-01T11:33:38.056Z,5.44
2022-12-01T11:34:38.040Z,5.47
2022-12-01T11:35:38.033Z,5.43
2022-12-01T11:36:38.031Z,5.43
2022-12-01T11:37:38.023Z,5.44
2022-12-01T11:38:38.004Z,5.48
2022-12-01T11:39:37.975Z,5.53
2022-12-01T11:40:37.966Z,5.54
2022-12-01T11:41:37.952Z,5.53
2022-12-01T11:42:37.966Z,5.54
2022-12-01T11:43:37.948Z,5.61
2022-12-01T11:44:51.497Z,5.59
2022-12-01T11:45:37.973Z,5.61
2022-12-01T11:46:42.677Z,5.59
2022-12-01T11:47:37.927Z,5.62
2022-12-01T11:48:37.906Z,5.59
2022-12-01T11:49:42.487Z,5.48
2022-12-01T11:50:37.890Z,5.51
2022-12-01T11:51:37.870Z,5.53
2022-12-01T11:52:37.890Z,5.53
2022-12-01T11:53:37.845Z,5.57
2022-12-01T11:54:37.821Z,5.62
2022-12-01T11:55:37.835Z,5.64
2022-12-01T11:56:37.805Z,5.69
2022-12-01T11:57:38.223Z,5.75
2022-12-01T11:58:37.824Z,5.80
2022-12-01T11:59:37.782Z,5.79
2022-12-01T12:00:37.787Z,5.79
2022-12-01T12:01:37.762Z,5.76
2022-12-01T12:02:37.843Z,5.80
2022-12-01T12:03:37.778Z,5.86
2022-12-01T12:04:37.854Z,5.90
2022-12-01T12:05:37.787Z,5.91
2022-12-01T12:06:40.253Z,5.98
2022-12-01T12:07:37.712Z,6.01
2022-12-01T12:08:37.717Z,6.04
2022-12-01T12:09:43.419Z,6.08
2022-12-01T12:10:37.755Z,6.09
2022-12-01T12:11:37.872Z,6.12
2022-12-01T12:12:37.661Z,6.14
2022-12-01T12:13:37.674Z,6.20
2022-12-01T12:14:37.638Z,6.27
2022-12-01T12:15:37.634Z,6.28
2022-12-01T12:16:37.621Z,6.33
2022-12-01T12:17:37.667Z,6.38
2022-12-01T12:18:37.589Z,6.44
2022-12-01T12:20:06.196Z,6.54
2022-12-01T12:20:37.602Z,6.59
2022-12-01T12:21:37.542Z,6.57
2022-12-01T12:22:37.546Z,6.48
2022-12-01T12:23:37.530Z,6.41
2022-12-01T12:24:37.552Z,6.42
2022-12-01T12:25:37.540Z,6.42
2022-12-01T12:26:37.520Z,6.44
2022-12-01T12:27:37.512Z,6.41
2022-12-01T12:28:37.500Z,6.33
2022-12-01T12:29:37.498Z,6.22
2022-12-01T12:30:37.735Z,6.20
2022-12-01T12:31:37.448Z,6.17
2022-12-01T12:32:37.443Z,6.09
2022-12-01T12:33:37.450Z,6.09
2022-12-01T12:34:37.436Z,6.09
2022-12-01T12:35:37.492Z,6.08
2022-12-01T12:36:37.406Z,6.11
2022-12-01T12:37:37.394Z,6.12
2022-12-01T12:38:37.620Z,6.14
2022-12-01T12:39:37.465Z,6.16
2022-12-01T12:40:37.389Z,6.17
2022-12-01T12:41:37.456Z,6.20
2022-12-01T12:42:37.328Z,6.12
2022-12-01T12:43:37.327Z,6.16
2022-12-01T12:44:37.897Z,6.16
2022-12-01T12:45:37.301Z,6.19
2022-12-01T12:46:37.430Z,6.17
2022-12-01T12:47:37.333Z,6.09
2022-12-01T12:48:50.858Z,6.09
2022-12-01T12:49:37.349Z,6.11
2022-12-01T12:50:37.269Z,6.12
2022-12-01T12:51:37.300Z,6.14
2022-12-01T12:52:37.245Z,6.12
2022-12-01T12:53:37.271Z,6.12
2022-12-01T12:54:37.346Z,6.12
2022-12-01T12:55:37.215Z,6.12
2022-12-01T12:56:37.212Z,6.09
2022-12-01T12:57:37.193Z,6.09
2022-12-01T12:58:37.171Z,6.05
2022-12-01T12:59:37.228Z,6.05
2022-12-01T13:00:37.160Z,6.07
2022-12-01T13:01:37.629Z,6.07
2022-12-01T13:02:37.314Z,6.02
2022-12-01T13:03:37.136Z,5.98
2022-12-01T13:04:37.124Z,5.91
2022-12-01T13:05:37.100Z,5.93
2022-12-01T13:06:37.090Z,5.97
2022-12-01T13:07:37.164Z,5.99
2022-12-01T13:08:37.067Z,6.01
2022-12-01T13:09:37.153Z,6.04
2022-12-01T13:10:37.058Z,6.05
2022-12-01T13:11:37.045Z,6.07
2022-12-01T13:12:37.060Z,6.09
2022-12-01T13:13:37.027Z,6.08
2022-12-01T13:14:37.026Z,6.09
2022-12-01T13:15:37.114Z,6.09
2022-12-01T13:16:36.993Z,6.09
2022-12-01T13:17:36.991Z,6.08
2022-12-01T13:18:37.002Z,6.07
2022-12-01T13:19:37.013Z,6.07
2022-12-01T13:20:36.971Z,6.08